Logo AVAMET
Benvolgut visitant, si us plau, ingressa Recuperar contrasenya

Redovà

Dades diàries. Acumulats / Últims 30 dies disponibles

Data Temperatura (°C) Humitat rel. (%) Pressió rel. (hPa) Vent (km/h) Precipitació
Mínima Mitjana Màxima Amplitud
tèrmica
Mínima Mitjana Màxima Mínima Mitjana Màxima Predom. Mitjana Ràfega
màxima
Total
(mm)
Índex-n
Mínima Mitjana Màxima Mínima Mitjana Màxima n
0 a 1
P0 max
mm 5'
Dades mensuals acumulades fins l'últim dia disponible
08/2019 20,6 23,5 25,8 28,0 29,5 33,9 42,7 22,1 0 64 92 1.011 1.017 1.022   2,1 37,0 18,4
Dades anuals acumulades fins l'últim dia disponible
2019 1,3 14,0 26,5 19,1 13,1 25,1 42,7 41,4 0 62 96 997 1.019 1.036   2,9 57,9 124,4
Últims 30 dies disponibles
23-08-2019 20,6     25,6     30,8 10,2 40 71 88 1.019 1.021 1.022 SSE 2,7 25,7 0,0
22-08-2019 21,1     25,7     30,1 9,0 53 72 87 1.020 1.021 1.022 SSE 2,9 24,1 0,0
21-08-2019 22,8     25,8     29,5 6,7 48 73 92 1.019 1.020 1.021 ESE 5,5 37,0 12,8 0,49 3,40
20-08-2019 24,8     29,0     32,1 7,3 57 69 88 1.017 1.018 1.020 SE 5,5 33,8 0,0
14-08-2019 21,8     23,9     32,3 10,5 0 76 85 1.019 1.021 1.022 SSE 0,2 14,5 0,0
13-08-2019 23,9     26,5     29,6 5,7 52 66 88 1.019 1.020 1.021 ESE 2,8 25,7 5,4 0,13 2,40
12-08-2019 25,1     28,2     33,2 8,1 23 43 87 1.013 1.014 1.016 SSO 1,5 20,9 0,0
11-08-2019 24,8     28,2     33,4 8,6 62 80 91 1.013 1.015 1.016 ESE 0,5 16,1 0,2
10-08-2019 25,8     31,0     39,2 13,4 30 57 83 1.015 1.016 1.017 SSE 2,0 24,1 0,0
09-08-2019 23,3     31,5     42,7 19,4 14 49 76 1.012 1.014 1.015 SE 1,0 16,1 0,0
08-08-2019 24,1     30,5     38,5 14,4 26 47 66 1.013 1.014 1.015 ESE 1,2 16,1 0,0
07-08-2019 25,4     34,4     41,2 15,8 0 36 60 1.011 1.012 1.014 ESE 3,1 24,1 0,0
03-08-2019 23,3     25,0     31,8 8,5 0 78 88 1.015 1.016 1.018 SSO 0,5 17,7 0,0
02-08-2019 23,8     28,8     32,2 8,4 53 69 84 1.014 1.016 1.017 ESE 1,6 17,7 0,0
01-08-2019 22,5     26,2     31,6 9,1 0 67 80 1.012 1.014 1.016 SSE 1,2 20,9 0,0
31-07-2019 24,9     26,5     29,6 4,7 52 68 80 1.014 1.016 1.018 SE 6,8 41,8 0,0
30-07-2019 22,6     26,8     31,3 8,7 0 73 88 1.013 1.014 1.016 S 4,1 27,4 0,0
29-07-2019 22,2     27,7     33,3 11,1 39 66 89 1.011 1.012 1.013 E 3,3 22,5 0,0
28-07-2019 24,9     29,2     33,5 8,6 32 47 78 1.010 1.011 1.013 SSE 4,3 24,1 0,0
27-07-2019 23,7     30,6     37,1 13,4 17 36 77 1.005 1.008 1.010 SSO 3,7 32,2 0,0
26-07-2019 22,8     29,4     37,2 14,4 32 64 90 1.008 1.011 1.015 E 1,7 20,9 0,0
25-07-2019 22,4     28,3     34,7 12,3 34 57 85 1.014 1.015 1.017 SSE 3,7 25,7 0,0
24-07-2019 22,9     29,3     34,9 12,0 25 45 61 1.016 1.017 1.018 SSE 3,8 27,4 0,0
23-07-2019 22,5     28,6     35,8 13,3 0 45 73 1.017 1.018 1.020 ESE 4,0 22,5 0,0
22-07-2019 23,7     29,1     33,3 9,6 34 52 69 1.020 1.021 1.022 E 5,6 35,4 0,0
21-07-2019 23,4     28,9     34,4 11,0 32 53 69 1.018 1.019 1.023 ESE 6,2 40,2 0,0
20-07-2019 22,8     28,1     32,6 9,8 44 60 76 1.015 1.016 1.019 SE 5,2 38,6 0,0
19-07-2019 21,6     27,2     33,1 11,5 36 65 86 1.015 1.016 1.018 ESE 4,8 29,0 0,0
18-07-2019 21,6     26,9     33,7 12,1 33 66 85 1.015 1.016 1.017 SSO 2,5 20,9 0,0
17-07-2019 22,3     27,2     31,8 9,5 43 63 79 1.014 1.015 1.017 ESE 3,6 29,0 0,0
Últims 13 mesos disponibles
07/2019 21,0 23,1 26,5 28,3 29,6 33,7 38,9 17,9 36 60 73 1.008 1.015 1.021 ESE 4,1 41,8 0,2
06/2019 13,9 18,6 23,2 24,4 24,7 30,2 36,3 22,4 37 59 73 1.010 1.016 1.024 SSE 3,8 49,9 0,8
05/2019 11,6 15,4 21,2 20,6 21,6 26,3 32,7 21,1 46 64 75 1.008 1.017 1.026 SE 3,6 48,3 3,4
04/2019 8,3 12,1 15,8 16,3 14,6 21,7 29,9 21,6 46 67 90 1.002 1.015 1.027 S 2,7 57,9 80,4
03/2019 5,4 9,2 13,2 14,9 13,1 21,4 28,7 23,3 40 62 90 1.013 1.024 1.032 SSE 2,2 46,7 18,6
02/2019 4,9 7,8 11,9 13,1 14,2 19,9 28,3 23,4 37 63 78 999 1.027 1.034 SSE 2,3 51,5 0,0
01/2019 1,3 6,7 13,0 11,7 13,4 17,9 23,2 21,9 40 60 81 1.007 1.021 1.033 SSO 1,8 40,2 2,6
12/2018 5,1 7,8 11,8 12,3 15,3 18,3 21,0 15,9 59 73 83 1.024 1.030 1.033 E 0,8 29,0 0,2
10/2018 9,3 15,0 18,7 19,6 17,5 26,4 30,5 21,2 43 72 83 1.002 1.016 1.026 SSE 2,0 49,9 55,6
Tots els anys disponibles
Temperatura (°C)
Humitat relativa (%)
Velocitat del vent i ràfega màxima (km/h)
Direcció del vent (°)
Pressió (hPa)
Precipitació (mm)
Nota sobre les dades: s'avisa a l'usuari de la provisionalitat i no oficialitat d'aquestes dades
Logo AVAMET blanc
Web allotjada a Sollutia
Llicència de Creative CommonsLa web d'AVAMET i els seus continguts estan subjectes a una llicència de
Reconeixement - No Comercial - Compartir igual
Properes estacions: Altea - Club Nàutic d'Altea (Soci), Ares del Maestrat (Ajuntament Soci),      - - - - -      Últimes estacions: Catadau - Urb. Lloma Molina (Inforatge), Ontinyent - El Pilar (Soci) - - -